Tuscumbia, Alabama
Current Conditions -  °F | °C
As of 12:22 AM on Sunday 26 Oct 2014 (Local Time) from KMSL Reporting Station
Haze Haze  
Wind Chill: 15°   Ceiling: Unl
Heat Index: 15°   Visibility: 0.75mi
Dew Point: 14°   Wind: 0mph
Humidity: 94%   Direction: NA
Pressure: 30.05"   Gusts: NA
Location:  34.73°N, 87.7°W
Report Text: KMSL 260522Z AUTO 00000KT 3/4SM BR CLR 15/14 A3005 RMK AO2
Loading
Personal Weather Stations






























Interactive Weather Map
Tropical Storm Tracking
New forecast layout! Learn more

10-Day Weather Forecast

Advertisements
Track Severe Weather on mobile